sensor_id;sensor_type;location;lat;lon;timestamp;temperature;humidity
18388;DHT22;9320;50.256;19.026;2023-02-27T00:00:47;2.40;95.30
18388;DHT22;9320;50.256;19.026;2023-02-27T00:03:15;2.30;95.20
18388;DHT22;9320;50.256;19.026;2023-02-27T00:05:43;2.50;95.00
18388;DHT22;9320;50.256;19.026;2023-02-27T00:08:11;2.20;94.60
18388;DHT22;9320;50.256;19.026;2023-02-27T00:10:39;2.20;94.80
18388;DHT22;9320;50.256;19.026;2023-02-27T00:13:07;2.20;95.00
18388;DHT22;9320;50.256;19.026;2023-02-27T00:15:36;2.20;94.20
18388;DHT22;9320;50.256;19.026;2023-02-27T00:18:08;2.20;94.40
18388;DHT22;9320;50.256;19.026;2023-02-27T00:20:36;1.90;94.30
18388;DHT22;9320;50.256;19.026;2023-02-27T00:23:05;1.90;94.90
18388;DHT22;9320;50.256;19.026;2023-02-27T00:25:33;1.60;94.30
18388;DHT22;9320;50.256;19.026;2023-02-27T00:28:02;1.90;95.00
18388;DHT22;9320;50.256;19.026;2023-02-27T00:30:30;2.00;94.60
18388;DHT22;9320;50.256;19.026;2023-02-27T00:32:58;1.90;94.90
18388;DHT22;9320;50.256;19.026;2023-02-27T00:35:28;1.90;94.00
18388;DHT22;9320;50.256;19.026;2023-02-27T00:37:56;1.90;92.90
18388;DHT22;9320;50.256;19.026;2023-02-27T00:40:24;1.90;92.60
18388;DHT22;9320;50.256;19.026;2023-02-27T00:42:52;2.00;93.00
18388;DHT22;9320;50.256;19.026;2023-02-27T00:45:20;2.00;92.60
18388;DHT22;9320;50.256;19.026;2023-02-27T00:47:48;1.90;92.80
18388;DHT22;9320;50.256;19.026;2023-02-27T00:50:16;1.90;92.90
18388;DHT22;9320;50.256;19.026;2023-02-27T00:52:45;2.00;93.40
18388;DHT22;9320;50.256;19.026;2023-02-27T00:55:13;2.30;92.90
18388;DHT22;9320;50.256;19.026;2023-02-27T00:57:41;2.20;91.50
18388;DHT22;9320;50.256;19.026;2023-02-27T01:00:11;2.30;91.70
18388;DHT22;9320;50.256;19.026;2023-02-27T01:02:39;2.30;91.60
18388;DHT22;9320;50.256;19.026;2023-02-27T01:05:08;2.30;90.70
18388;DHT22;9320;50.256;19.026;2023-02-27T01:07:36;2.20;90.50
18388;DHT22;9320;50.256;19.026;2023-02-27T01:10:07;2.10;90.30
18388;DHT22;9320;50.256;19.026;2023-02-27T01:12:36;2.00;88.10
18388;DHT22;9320;50.256;19.026;2023-02-27T01:15:06;2.10;84.50
18388;DHT22;9320;50.256;19.026;2023-02-27T01:17:35;2.10;83.60
18388;DHT22;9320;50.256;19.026;2023-02-27T01:20:05;2.00;82.00
18388;DHT22;9320;50.256;19.026;2023-02-27T01:22:34;2.10;82.30
18388;DHT22;9320;50.256;19.026;2023-02-27T01:25:03;2.10;83.50
18388;DHT22;9320;50.256;19.026;2023-02-27T01:27:32;2.20;82.70
18388;DHT22;9320;50.256;19.026;2023-02-27T01:30:00;2.20;81.80
18388;DHT22;9320;50.256;19.026;2023-02-27T01:32:28;2.20;81.70
18388;DHT22;9320;50.256;19.026;2023-02-27T01:34:56;2.20;82.70
18388;DHT22;9320;50.256;19.026;2023-02-27T01:37:24;2.30;81.00
18388;DHT22;9320;50.256;19.026;2023-02-27T01:39:52;2.20;80.70
18388;DHT22;9320;50.256;19.026;2023-02-27T01:42:22;2.40;82.00
18388;DHT22;9320;50.256;19.026;2023-02-27T01:45:28;2.50;82.20
18388;DHT22;9320;50.256;19.026;2023-02-27T01:48:04;2.60;83.90
18388;DHT22;9320;50.256;19.026;2023-02-27T01:50:35;2.70;82.60
18388;DHT22;9320;50.256;19.026;2023-02-27T01:53:05;2.70;81.70
18388;DHT22;9320;50.256;19.026;2023-02-27T01:55:35;2.90;81.70
18388;DHT22;9320;50.256;19.026;2023-02-27T01:58:06;2.90;81.70
18388;DHT22;9320;50.256;19.026;2023-02-27T02:00:37;3.00;81.90
18388;DHT22;9320;50.256;19.026;2023-02-27T02:03:13;2.90;81.90
18388;DHT22;9320;50.256;19.026;2023-02-27T02:05:43;3.00;82.60
18388;DHT22;9320;50.256;19.026;2023-02-27T02:08:15;3.00;82.60
18388;DHT22;9320;50.256;19.026;2023-02-27T02:10:44;3.30;83.10
18388;DHT22;9320;50.256;19.026;2023-02-27T02:13:13;3.30;83.10
18388;DHT22;9320;50.256;19.026;2023-02-27T02:15:46;3.30;83.10
18388;DHT22;9320;50.256;19.026;2023-02-27T02:18:21;3.30;83.50
18388;DHT22;9320;50.256;19.026;2023-02-27T02:21:15;3.30;85.00
18388;DHT22;9320;50.256;19.026;2023-02-27T02:24:16;3.30;84.00
18388;DHT22;9320;50.256;19.026;2023-02-27T02:26:57;3.20;84.70
18388;DHT22;9320;50.256;19.026;2023-02-27T02:39:16;2.70;88.40
18388;DHT22;9320;50.256;19.026;2023-02-27T02:41:59;2.50;89.10
18388;DHT22;9320;50.256;19.026;2023-02-27T02:44:37;2.70;90.20
18388;DHT22;9320;50.256;19.026;2023-02-27T02:47:16;2.80;90.00
18388;DHT22;9320;50.256;19.026;2023-02-27T02:49:54;2.90;89.60
18388;DHT22;9320;50.256;19.026;2023-02-27T02:52:31;3.10;89.80
18388;DHT22;9320;50.256;19.026;2023-02-27T02:55:07;3.00;89.80
18388;DHT22;9320;50.256;19.026;2023-02-27T02:57:39;2.90;90.10
18388;DHT22;9320;50.256;19.026;2023-02-27T03:00:12;3.00;90.30
18388;DHT22;9320;50.256;19.026;2023-02-27T03:02:44;3.00;90.40
18388;DHT22;9320;50.256;19.026;2023-02-27T03:05:19;3.00;90.50
18388;DHT22;9320;50.256;19.026;2023-02-27T03:07:52;3.00;90.80
18388;DHT22;9320;50.256;19.026;2023-02-27T03:10:28;2.80;91.20
18388;DHT22;9320;50.256;19.026;2023-02-27T03:13:00;2.90;91.30
18388;DHT22;9320;50.256;19.026;2023-02-27T03:15:32;3.00;91.50
18388;DHT22;9320;50.256;19.026;2023-02-27T03:18:05;2.90;90.90
18388;DHT22;9320;50.256;19.026;2023-02-27T03:20:40;2.70;91.10
18388;DHT22;9320;50.256;19.026;2023-02-27T03:23:17;2.80;91.70
18388;DHT22;9320;50.256;19.026;2023-02-27T03:25:50;2.80;91.60
18388;DHT22;9320;50.256;19.026;2023-02-27T03:28:23;2.80;91.30
18388;DHT22;9320;50.256;19.026;2023-02-27T03:30:56;2.60;91.60
18388;DHT22;9320;50.256;19.026;2023-02-27T03:33:29;2.50;91.90
18388;DHT22;9320;50.256;19.026;2023-02-27T03:36:04;2.30;92.30
18388;DHT22;9320;50.256;19.026;2023-02-27T03:38:38;2.50;92.50
18388;DHT22;9320;50.256;19.026;2023-02-27T03:41:13;2.60;92.20
18388;DHT22;9320;50.256;19.026;2023-02-27T03:43:49;2.40;91.90
18388;DHT22;9320;50.256;19.026;2023-02-27T03:46:22;2.50;92.10
18388;DHT22;9320;50.256;19.026;2023-02-27T03:48:50;2.40;91.80
18388;DHT22;9320;50.256;19.026;2023-02-27T03:51:20;2.50;92.10
18388;DHT22;9320;50.256;19.026;2023-02-27T03:53:55;2.60;92.00
18388;DHT22;9320;50.256;19.026;2023-02-27T03:56:29;2.70;91.90
18388;DHT22;9320;50.256;19.026;2023-02-27T03:58:58;2.50;92.40
18388;DHT22;9320;50.256;19.026;2023-02-27T04:01:26;2.40;92.30
18388;DHT22;9320;50.256;19.026;2023-02-27T04:03:58;2.40;92.40
18388;DHT22;9320;50.256;19.026;2023-02-27T04:06:28;2.60;92.40
18388;DHT22;9320;50.256;19.026;2023-02-27T04:09:22;2.60;92.20
18388;DHT22;9320;50.256;19.026;2023-02-27T04:12:10;2.50;92.30
18388;DHT22;9320;50.256;19.026;2023-02-27T04:14:52;2.50;92.00
18388;DHT22;9320;50.256;19.026;2023-02-27T04:17:24;2.50;92.10
18388;DHT22;9320;50.256;19.026;2023-02-27T04:20:21;2.50;91.80
18388;DHT22;9320;50.256;19.026;2023-02-27T04:22:57;2.50;92.00
18388;DHT22;9320;50.256;19.026;2023-02-27T04:25:35;2.40;92.40
18388;DHT22;9320;50.256;19.026;2023-02-27T04:28:13;2.50;92.50
18388;DHT22;9320;50.256;19.026;2023-02-27T04:30:48;2.50;92.00
18388;DHT22;9320;50.256;19.026;2023-02-27T04:33:24;2.50;91.80
18388;DHT22;9320;50.256;19.026;2023-02-27T04:35:57;2.60;91.90
18388;DHT22;9320;50.256;19.026;2023-02-27T04:38:28;2.50;92.40
18388;DHT22;9320;50.256;19.026;2023-02-27T04:41:04;2.60;92.30
18388;DHT22;9320;50.256;19.026;2023-02-27T04:43:35;2.50;92.30
18388;DHT22;9320;50.256;19.026;2023-02-27T04:46:06;2.40;93.10
18388;DHT22;9320;50.256;19.026;2023-02-27T04:48:44;2.40;92.80
18388;DHT22;9320;50.256;19.026;2023-02-27T04:51:16;2.30;92.40
18388;DHT22;9320;50.256;19.026;2023-02-27T04:53:49;2.10;92.50
18388;DHT22;9320;50.256;19.026;2023-02-27T04:56:22;1.80;93.10
18388;DHT22;9320;50.256;19.026;2023-02-27T04:58:55;1.80;93.50
18388;DHT22;9320;50.256;19.026;2023-02-27T05:01:29;2.00;94.10
18388;DHT22;9320;50.256;19.026;2023-02-27T05:03:58;2.20;93.50
18388;DHT22;9320;50.256;19.026;2023-02-27T05:06:29;2.40;93.70
18388;DHT22;9320;50.256;19.026;2023-02-27T05:09:05;2.30;93.00
18388;DHT22;9320;50.256;19.026;2023-02-27T05:11:40;2.30;93.20
18388;DHT22;9320;50.256;19.026;2023-02-27T05:14:15;2.30;93.10
18388;DHT22;9320;50.256;19.026;2023-02-27T05:16:49;2.30;93.50
18388;DHT22;9320;50.256;19.026;2023-02-27T05:19:18;2.50;93.50
18388;DHT22;9320;50.256;19.026;2023-02-27T05:21:53;2.60;93.30
18388;DHT22;9320;50.256;19.026;2023-02-27T05:24:29;2.50;92.80
18388;DHT22;9320;50.256;19.026;2023-02-27T05:27:14;2.30;93.20
18388;DHT22;9320;50.256;19.026;2023-02-27T05:29:48;2.50;93.20
18388;DHT22;9320;50.256;19.026;2023-02-27T05:32:35;2.40;93.20
18388;DHT22;9320;50.256;19.026;2023-02-27T05:35:15;2.40;92.90
18388;DHT22;9320;50.256;19.026;2023-02-27T05:37:47;2.30;93.20
18388;DHT22;9320;50.256;19.026;2023-02-27T05:40:21;2.20;93.60
18388;DHT22;9320;50.256;19.026;2023-02-27T05:42:55;2.10;93.80
18388;DHT22;9320;50.256;19.026;2023-02-27T05:45:29;2.20;93.90
18388;DHT22;9320;50.256;19.026;2023-02-27T05:48:03;2.40;93.60
18388;DHT22;9320;50.256;19.026;2023-02-27T05:50:34;2.40;93.00
18388;DHT22;9320;50.256;19.026;2023-02-27T05:53:07;2.50;93.50
18388;DHT22;9320;50.256;19.026;2023-02-27T05:55:38;2.60;93.10
18388;DHT22;9320;50.256;19.026;2023-02-27T05:58:13;2.50;92.40
18388;DHT22;9320;50.256;19.026;2023-02-27T06:00:47;2.50;93.00
18388;DHT22;9320;50.256;19.026;2023-02-27T06:03:16;2.30;92.80
18388;DHT22;9320;50.256;19.026;2023-02-27T06:05:45;2.40;93.10
18388;DHT22;9320;50.256;19.026;2023-02-27T06:08:14;2.40;93.30
18388;DHT22;9320;50.256;19.026;2023-02-27T06:10:42;2.40;92.50
18388;DHT22;9320;50.256;19.026;2023-02-27T06:13:10;2.40;92.80
18388;DHT22;9320;50.256;19.026;2023-02-27T06:15:39;2.40;92.50
18388;DHT22;9320;50.256;19.026;2023-02-27T06:18:08;2.40;92.80
18388;DHT22;9320;50.256;19.026;2023-02-27T06:20:36;2.20;93.20
18388;DHT22;9320;50.256;19.026;2023-02-27T06:23:04;2.40;93.40
18388;DHT22;9320;50.256;19.026;2023-02-27T06:25:33;2.70;93.10
18388;DHT22;9320;50.256;19.026;2023-02-27T06:28:02;2.80;92.60
18388;DHT22;9320;50.256;19.026;2023-02-27T06:30:30;2.80;92.10
18388;DHT22;9320;50.256;19.026;2023-02-27T06:32:58;2.70;92.50
18388;DHT22;9320;50.256;19.026;2023-02-27T06:35:28;2.50;92.60
18388;DHT22;9320;50.256;19.026;2023-02-27T06:37:56;2.60;93.10
18388;DHT22;9320;50.256;19.026;2023-02-27T06:40:25;2.90;92.70
18388;DHT22;9320;50.256;19.026;2023-02-27T06:42:53;2.70;92.00
18388;DHT22;9320;50.256;19.026;2023-02-27T06:45:21;2.90;92.40
18388;DHT22;9320;50.256;19.026;2023-02-27T06:47:50;3.00;92.20
18388;DHT22;9320;50.256;19.026;2023-02-27T06:50:18;3.20;92.10
18388;DHT22;9320;50.256;19.026;2023-02-27T06:52:47;3.20;91.90
18388;DHT22;9320;50.256;19.026;2023-02-27T06:55:15;3.30;91.30
18388;DHT22;9320;50.256;19.026;2023-02-27T06:57:46;3.10;91.20
18388;DHT22;9320;50.256;19.026;2023-02-27T07:00:15;2.90;91.50
18388;DHT22;9320;50.256;19.026;2023-02-27T07:02:43;2.90;91.70
18388;DHT22;9320;50.256;19.026;2023-02-27T07:05:11;3.00;91.70
18388;DHT22;9320;50.256;19.026;2023-02-27T07:07:40;2.90;91.50
18388;DHT22;9320;50.256;19.026;2023-02-27T07:10:12;2.80;91.80
18388;DHT22;9320;50.256;19.026;2023-02-27T07:12:40;2.90;92.10
18388;DHT22;9320;50.256;19.026;2023-02-27T07:15:09;3.00;91.90
18388;DHT22;9320;50.256;19.026;2023-02-27T07:17:37;3.40;92.00
18388;DHT22;9320;50.256;19.026;2023-02-27T07:20:07;3.50;91.50
18388;DHT22;9320;50.256;19.026;2023-02-27T07:22:37;3.20;91.30
18388;DHT22;9320;50.256;19.026;2023-02-27T07:25:06;3.10;91.40
18388;DHT22;9320;50.256;19.026;2023-02-27T07:27:36;3.30;91.00
18388;DHT22;9320;50.256;19.026;2023-02-27T07:30:05;3.20;91.40
18388;DHT22;9320;50.256;19.026;2023-02-27T07:32:33;3.30;91.00
18388;DHT22;9320;50.256;19.026;2023-02-27T07:35:01;3.30;91.30
18388;DHT22;9320;50.256;19.026;2023-02-27T07:37:30;3.50;90.70
18388;DHT22;9320;50.256;19.026;2023-02-27T07:39:57;3.90;90.80
18388;DHT22;9320;50.256;19.026;2023-02-27T07:42:26;4.10;90.30
18388;DHT22;9320;50.256;19.026;2023-02-27T07:44:55;4.20;89.00
18388;DHT22;9320;50.256;19.026;2023-02-27T07:47:23;4.20;88.90
18388;DHT22;9320;50.256;19.026;2023-02-27T07:49:51;4.20;90.20
18388;DHT22;9320;50.256;19.026;2023-02-27T07:52:19;4.00;89.10
18388;DHT22;9320;50.256;19.026;2023-02-27T07:54:47;3.70;90.10
18388;DHT22;9320;50.256;19.026;2023-02-27T07:57:15;3.90;90.20
18388;DHT22;9320;50.256;19.026;2023-02-27T07:59:43;3.90;90.20
18388;DHT22;9320;50.256;19.026;2023-02-27T08:02:12;3.90;89.50
18388;DHT22;9320;50.256;19.026;2023-02-27T08:04:41;4.20;90.00
18388;DHT22;9320;50.256;19.026;2023-02-27T08:07:09;4.40;90.00
18388;DHT22;9320;50.256;19.026;2023-02-27T08:09:37;4.50;89.30
18388;DHT22;9320;50.256;19.026;2023-02-27T08:12:05;4.80;88.20
18388;DHT22;9320;50.256;19.026;2023-02-27T08:14:33;4.90;88.10
18388;DHT22;9320;50.256;19.026;2023-02-27T08:17:01;5.10;85.50
18388;DHT22;9320;50.256;19.026;2023-02-27T08:19:30;5.20;86.20
18388;DHT22;9320;50.256;19.026;2023-02-27T08:21:58;5.20;85.10
18388;DHT22;9320;50.256;19.026;2023-02-27T08:24:26;5.30;86.70
18388;DHT22;9320;50.256;19.026;2023-02-27T08:26:54;5.40;85.00
18388;DHT22;9320;50.256;19.026;2023-02-27T08:29:23;4.80;86.70
18388;DHT22;9320;50.256;19.026;2023-02-27T08:31:51;4.40;86.70
18388;DHT22;9320;50.256;19.026;2023-02-27T08:34:19;4.40;89.80
18388;DHT22;9320;50.256;19.026;2023-02-27T08:36:48;4.90;88.20
18388;DHT22;9320;50.256;19.026;2023-02-27T08:39:17;4.80;87.00
18388;DHT22;9320;50.256;19.026;2023-02-27T08:41:49;4.50;87.20
18388;DHT22;9320;50.256;19.026;2023-02-27T08:44:18;4.10;88.30
18388;DHT22;9320;50.256;19.026;2023-02-27T08:46:46;3.90;89.90
18388;DHT22;9320;50.256;19.026;2023-02-27T08:49:14;4.20;90.30
18388;DHT22;9320;50.256;19.026;2023-02-27T08:51:43;4.40;90.10
18388;DHT22;9320;50.256;19.026;2023-02-27T08:54:12;4.50;89.90
18388;DHT22;9320;50.256;19.026;2023-02-27T08:56:40;4.20;89.00
18388;DHT22;9320;50.256;19.026;2023-02-27T08:59:09;4.20;90.10
18388;DHT22;9320;50.256;19.026;2023-02-27T09:01:37;4.40;90.00
18388;DHT22;9320;50.256;19.026;2023-02-27T09:04:05;4.70;89.90
18388;DHT22;9320;50.256;19.026;2023-02-27T09:06:34;4.80;90.30
18388;DHT22;9320;50.256;19.026;2023-02-27T09:09:03;5.10;88.90
18388;DHT22;9320;50.256;19.026;2023-02-27T09:11:33;5.00;89.10
18388;DHT22;9320;50.256;19.026;2023-02-27T09:14:04;5.20;88.40
18388;DHT22;9320;50.256;19.026;2023-02-27T09:16:33;5.00;87.90
18388;DHT22;9320;50.256;19.026;2023-02-27T09:19:01;4.40;88.10
18388;DHT22;9320;50.256;19.026;2023-02-27T09:21:29;4.30;89.70
18388;DHT22;9320;50.256;19.026;2023-02-27T09:23:57;4.40;90.20
18388;DHT22;9320;50.256;19.026;2023-02-27T09:26:44;4.40;89.10
18388;DHT22;9320;50.256;19.026;2023-02-27T09:29:13;4.10;90.70
18388;DHT22;9320;50.256;19.026;2023-02-27T09:31:41;4.00;91.00
18388;DHT22;9320;50.256;19.026;2023-02-27T09:34:09;3.80;91.00
18388;DHT22;9320;50.256;19.026;2023-02-27T09:36:37;3.90;91.30
18388;DHT22;9320;50.256;19.026;2023-02-27T09:39:05;4.00;90.80
18388;DHT22;9320;50.256;19.026;2023-02-27T09:41:50;4.20;91.10
18388;DHT22;9320;50.256;19.026;2023-02-27T09:44:29;4.30;90.80
18388;DHT22;9320;50.256;19.026;2023-02-27T09:47:15;4.40;90.30
18388;DHT22;9320;50.256;19.026;2023-02-27T09:49:54;4.50;87.30
18388;DHT22;9320;50.256;19.026;2023-02-27T09:52:24;4.50;87.50
18388;DHT22;9320;50.256;19.026;2023-02-27T09:54:53;4.40;86.80
18388;DHT22;9320;50.256;19.026;2023-02-27T09:57:31;4.40;88.00
18388;DHT22;9320;50.256;19.026;2023-02-27T10:00:09;4.70;84.90
18388;DHT22;9320;50.256;19.026;2023-02-27T10:02:45;4.90;83.90
18388;DHT22;9320;50.256;19.026;2023-02-27T10:05:29;4.80;84.90
18388;DHT22;9320;50.256;19.026;2023-02-27T10:08:02;4.30;84.00
18388;DHT22;9320;50.256;19.026;2023-02-27T10:10:36;4.20;84.20
18388;DHT22;9320;50.256;19.026;2023-02-27T10:13:26;4.20;84.60
18388;DHT22;9320;50.256;19.026;2023-02-27T10:15:57;4.00;85.90
18388;DHT22;9320;50.256;19.026;2023-02-27T10:18:28;4.50;85.60
18388;DHT22;9320;50.256;19.026;2023-02-27T10:20:58;4.30;82.90
18388;DHT22;9320;50.256;19.026;2023-02-27T10:23:33;4.20;84.20
18388;DHT22;9320;50.256;19.026;2023-02-27T10:26:03;4.30;82.70
18388;DHT22;9320;50.256;19.026;2023-02-27T10:28:33;4.10;83.00
18388;DHT22;9320;50.256;19.026;2023-02-27T10:31:02;4.10;83.80
18388;DHT22;9320;50.256;19.026;2023-02-27T10:33:34;4.00;83.20
18388;DHT22;9320;50.256;19.026;2023-02-27T10:36:04;4.20;82.40
18388;DHT22;9320;50.256;19.026;2023-02-27T10:38:51;4.20;80.60
18388;DHT22;9320;50.256;19.026;2023-02-27T10:41:22;4.40;80.60
18388;DHT22;9320;50.256;19.026;2023-02-27T10:43:54;4.30;76.60
18388;DHT22;9320;50.256;19.026;2023-02-27T10:46:26;4.20;77.50
18388;DHT22;9320;50.256;19.026;2023-02-27T10:48:57;4.10;76.30
18388;DHT22;9320;50.256;19.026;2023-02-27T10:51:27;4.50;76.40
18388;DHT22;9320;50.256;19.026;2023-02-27T10:54:14;4.70;74.00
18388;DHT22;9320;50.256;19.026;2023-02-27T10:56:44;5.10;72.80
18388;DHT22;9320;50.256;19.026;2023-02-27T10:59:19;5.20;72.10
18388;DHT22;9320;50.256;19.026;2023-02-27T11:01:49;5.60;70.00
18388;DHT22;9320;50.256;19.026;2023-02-27T11:04:27;5.70;69.10
18388;DHT22;9320;50.256;19.026;2023-02-27T11:06:59;5.50;69.20
18388;DHT22;9320;50.256;19.026;2023-02-27T11:09:29;5.40;70.80
18388;DHT22;9320;50.256;19.026;2023-02-27T11:12:17;5.30;72.40
18388;DHT22;9320;50.256;19.026;2023-02-27T11:14:50;4.90;71.60
18388;DHT22;9320;50.256;19.026;2023-02-27T11:17:25;4.40;73.70
18388;DHT22;9320;50.256;19.026;2023-02-27T11:19:55;4.10;74.70
18388;DHT22;9320;50.256;19.026;2023-02-27T11:22:24;4.20;76.20
18388;DHT22;9320;50.256;19.026;2023-02-27T11:25:16;3.90;76.70
18388;DHT22;9320;50.256;19.026;2023-02-27T11:27:44;3.90;76.90
18388;DHT22;9320;50.256;19.026;2023-02-27T11:30:23;3.80;77.90
18388;DHT22;9320;50.256;19.026;2023-02-27T11:32:54;3.90;76.70
18388;DHT22;9320;50.256;19.026;2023-02-27T11:35:25;3.60;77.80
18388;DHT22;9320;50.256;19.026;2023-02-27T11:37:56;3.20;78.10
18388;DHT22;9320;50.256;19.026;2023-02-27T11:40:28;3.30;79.30
18388;DHT22;9320;50.256;19.026;2023-02-27T11:43:01;3.40;79.40
18388;DHT22;9320;50.256;19.026;2023-02-27T11:45:33;3.40;77.90
18388;DHT22;9320;50.256;19.026;2023-02-27T11:48:24;3.60;76.90
18388;DHT22;9320;50.256;19.026;2023-02-27T11:51:23;3.90;76.50
18388;DHT22;9320;50.256;19.026;2023-02-27T11:54:14;4.30;75.80
18388;DHT22;9320;50.256;19.026;2023-02-27T11:56:43;4.40;73.80
18388;DHT22;9320;50.256;19.026;2023-02-27T11:59:29;4.60;73.70
18388;DHT22;9320;50.256;19.026;2023-02-27T12:02:08;4.40;72.80
18388;DHT22;9320;50.256;19.026;2023-02-27T12:04:43;4.60;73.90
18388;DHT22;9320;50.256;19.026;2023-02-27T12:07:19;4.90;73.10
18388;DHT22;9320;50.256;19.026;2023-02-27T12:09:54;4.90;72.10
18388;DHT22;9320;50.256;19.026;2023-02-27T12:12:25;4.60;72.90
18388;DHT22;9320;50.256;19.026;2023-02-27T12:15:01;4.30;74.30
18388;DHT22;9320;50.256;19.026;2023-02-27T12:17:36;4.30;76.80
18388;DHT22;9320;50.256;19.026;2023-02-27T12:20:27;4.40;74.60
18388;DHT22;9320;50.256;19.026;2023-02-27T12:22:56;4.40;74.70
18388;DHT22;9320;50.256;19.026;2023-02-27T12:25:37;4.10;73.00
18388;DHT22;9320;50.256;19.026;2023-02-27T12:28:16;3.90;74.10
18388;DHT22;9320;50.256;19.026;2023-02-27T12:30:53;3.80;72.80
18388;DHT22;9320;50.256;19.026;2023-02-27T12:33:31;3.80;73.50
18388;DHT22;9320;50.256;19.026;2023-02-27T12:36:03;4.00;73.30
18388;DHT22;9320;50.256;19.026;2023-02-27T12:38:32;4.00;72.60
18388;DHT22;9320;50.256;19.026;2023-02-27T12:41:14;4.30;72.80
18388;DHT22;9320;50.256;19.026;2023-02-27T12:43:48;4.30;71.90
18388;DHT22;9320;50.256;19.026;2023-02-27T12:46:38;4.60;71.50
18388;DHT22;9320;50.256;19.026;2023-02-27T12:49:20;4.50;71.60
18388;DHT22;9320;50.256;19.026;2023-02-27T12:52:01;4.60;71.60
18388;DHT22;9320;50.256;19.026;2023-02-27T12:54:36;4.70;71.60
18388;DHT22;9320;50.256;19.026;2023-02-27T12:57:22;4.50;70.10
18388;DHT22;9320;50.256;19.026;2023-02-27T13:00:03;4.50;70.20
18388;DHT22;9320;50.256;19.026;2023-02-27T13:02:54;4.30;71.00
18388;DHT22;9320;50.256;19.026;2023-02-27T13:05:34;4.10;72.90
18388;DHT22;9320;50.256;19.026;2023-02-27T13:08:10;4.30;72.20
18388;DHT22;9320;50.256;19.026;2023-02-27T13:10:44;3.80;73.20
18388;DHT22;9320;50.256;19.026;2023-02-27T13:13:19;4.10;73.90
18388;DHT22;9320;50.256;19.026;2023-02-27T13:15:54;3.90;73.90
18388;DHT22;9320;50.256;19.026;2023-02-27T13:18:35;4.30;72.40
18388;DHT22;9320;50.256;19.026;2023-02-27T13:21:11;4.70;72.90
18388;DHT22;9320;50.256;19.026;2023-02-27T13:23:48;4.50;70.80
18388;DHT22;9320;50.256;19.026;2023-02-27T13:26:22;4.10;70.70
18388;DHT22;9320;50.256;19.026;2023-02-27T13:28:51;4.10;69.70
18388;DHT22;9320;50.256;19.026;2023-02-27T13:31:28;3.90;69.50
18388;DHT22;9320;50.256;19.026;2023-02-27T13:34:12;3.90;69.40
18388;DHT22;9320;50.256;19.026;2023-02-27T13:36:44;4.20;69.30
18388;DHT22;9320;50.256;19.026;2023-02-27T13:39:39;4.20;68.00
18388;DHT22;9320;50.256;19.026;2023-02-27T13:48:36;4.70;67.50
18388;DHT22;9320;50.256;19.026;2023-02-27T13:54:20;4.70;67.50
18388;DHT22;9320;50.256;19.026;2023-02-27T13:56:50;4.20;67.80
18388;DHT22;9320;50.256;19.026;2023-02-27T13:59:33;3.90;68.60
18388;DHT22;9320;50.256;19.026;2023-02-27T14:02:05;3.80;69.20
18388;DHT22;9320;50.256;19.026;2023-02-27T14:04:52;4.10;68.50
18388;DHT22;9320;50.256;19.026;2023-02-27T14:07:25;4.30;68.50
18388;DHT22;9320;50.256;19.026;2023-02-27T14:10:03;4.40;67.30
18388;DHT22;9320;50.256;19.026;2023-02-27T14:12:35;3.80;67.80
18388;DHT22;9320;50.256;19.026;2023-02-27T14:24:17;3.50;68.90
18388;DHT22;9320;50.256;19.026;2023-02-27T14:26:47;3.40;68.80
18388;DHT22;9320;50.256;19.026;2023-02-27T14:29:19;3.30;69.10
18388;DHT22;9320;50.256;19.026;2023-02-27T14:31:48;3.50;69.10
18388;DHT22;9320;50.256;19.026;2023-02-27T14:34:19;3.50;68.90
18388;DHT22;9320;50.256;19.026;2023-02-27T14:36:50;3.50;69.80
18388;DHT22;9320;50.256;19.026;2023-02-27T14:39:21;3.60;69.00
18388;DHT22;9320;50.256;19.026;2023-02-27T14:41:59;3.30;68.90
18388;DHT22;9320;50.256;19.026;2023-02-27T14:44:37;3.10;68.60
18388;DHT22;9320;50.256;19.026;2023-02-27T14:47:13;3.10;69.80
18388;DHT22;9320;50.256;19.026;2023-02-27T14:49:44;3.10;69.70
18388;DHT22;9320;50.256;19.026;2023-02-27T14:52:17;3.10;71.20
18388;DHT22;9320;50.256;19.026;2023-02-27T14:54:46;3.30;71.00
18388;DHT22;9320;50.256;19.026;2023-02-27T14:57:19;3.10;70.10
18388;DHT22;9320;50.256;19.026;2023-02-27T14:59:48;2.90;70.30
18388;DHT22;9320;50.256;19.026;2023-02-27T15:02:23;3.00;70.90
18388;DHT22;9320;50.256;19.026;2023-02-27T15:04:54;3.10;71.10
18388;DHT22;9320;50.256;19.026;2023-02-27T15:07:23;3.20;70.00
18388;DHT22;9320;50.256;19.026;2023-02-27T15:09:54;3.10;69.30
18388;DHT22;9320;50.256;19.026;2023-02-27T15:12:25;3.20;69.80
18388;DHT22;9320;50.256;19.026;2023-02-27T15:14:55;3.50;69.90
18388;DHT22;9320;50.256;19.026;2023-02-27T15:17:25;3.60;69.00
18388;DHT22;9320;50.256;19.026;2023-02-27T15:19:55;3.60;69.40
18388;DHT22;9320;50.256;19.026;2023-02-27T15:22:25;3.70;69.60
18388;DHT22;9320;50.256;19.026;2023-02-27T15:25:06;3.70;69.40
18388;DHT22;9320;50.256;19.026;2023-02-27T15:27:36;3.60;69.60
18388;DHT22;9320;50.256;19.026;2023-02-27T15:30:06;3.60;70.50
18388;DHT22;9320;50.256;19.026;2023-02-27T15:32:39;3.70;70.00
18388;DHT22;9320;50.256;19.026;2023-02-27T15:35:14;3.80;69.80
18388;DHT22;9320;50.256;19.026;2023-02-27T15:37:47;3.70;69.40
18388;DHT22;9320;50.256;19.026;2023-02-27T15:40:20;3.50;68.60
18388;DHT22;9320;50.256;19.026;2023-02-27T15:42:51;3.50;68.80
18388;DHT22;9320;50.256;19.026;2023-02-27T15:45:21;3.60;68.90
18388;DHT22;9320;50.256;19.026;2023-02-27T15:47:50;3.70;69.60
18388;DHT22;9320;50.256;19.026;2023-02-27T15:50:26;3.50;69.40
18388;DHT22;9320;50.256;19.026;2023-02-27T15:52:58;3.60;69.70
18388;DHT22;9320;50.256;19.026;2023-02-27T15:55:29;3.70;69.70
18388;DHT22;9320;50.256;19.026;2023-02-27T15:58:00;3.60;70.10
18388;DHT22;9320;50.256;19.026;2023-02-27T16:00:30;3.40;70.20
18388;DHT22;9320;50.256;19.026;2023-02-27T16:03:01;3.10;69.70
18388;DHT22;9320;50.256;19.026;2023-02-27T16:05:33;2.90;70.70
18388;DHT22;9320;50.256;19.026;2023-02-27T16:08:03;2.80;71.40
18388;DHT22;9320;50.256;19.026;2023-02-27T16:10:35;2.60;72.00
18388;DHT22;9320;50.256;19.026;2023-02-27T16:13:30;2.70;73.00
18388;DHT22;9320;50.256;19.026;2023-02-27T16:16:02;2.70;72.50
18388;DHT22;9320;50.256;19.026;2023-02-27T16:18:32;2.90;72.50
18388;DHT22;9320;50.256;19.026;2023-02-27T16:21:09;2.70;72.00
18388;DHT22;9320;50.256;19.026;2023-02-27T16:23:38;2.80;71.90
18388;DHT22;9320;50.256;19.026;2023-02-27T16:26:20;2.80;71.50
18388;DHT22;9320;50.256;19.026;2023-02-27T16:28:52;2.90;70.80
18388;DHT22;9320;50.256;19.026;2023-02-27T16:31:26;2.80;71.10
18388;DHT22;9320;50.256;19.026;2023-02-27T16:33:57;2.70;72.20
18388;DHT22;9320;50.256;19.026;2023-02-27T16:36:27;2.60;73.00
18388;DHT22;9320;50.256;19.026;2023-02-27T16:38:57;2.50;72.90
18388;DHT22;9320;50.256;19.026;2023-02-27T16:41:26;2.40;72.90
18388;DHT22;9320;50.256;19.026;2023-02-27T16:43:55;2.40;73.70
18388;DHT22;9320;50.256;19.026;2023-02-27T16:46:23;2.30;73.50
18388;DHT22;9320;50.256;19.026;2023-02-27T16:48:53;2.10;74.30